createdAt,value
2023-02-02T00:01:29.942Z,1.70
2023-02-02T00:03:57.128Z,1.70
2023-02-02T00:06:26.853Z,1.70
2023-02-02T00:08:55.449Z,1.80
2023-02-02T00:11:22.430Z,1.70
2023-02-02T00:13:49.337Z,1.70
2023-02-02T00:16:31.166Z,1.70
2023-02-02T00:19:00.960Z,1.70
2023-02-02T00:21:28.356Z,1.70
2023-02-02T00:23:57.335Z,1.60
2023-02-02T00:26:25.161Z,1.60
2023-02-02T00:28:52.884Z,1.70
2023-02-02T00:31:19.983Z,1.60
2023-02-02T00:33:50.829Z,1.60
2023-02-02T00:36:19.062Z,1.60
2023-02-02T00:38:46.850Z,1.70
2023-02-02T00:41:13.815Z,1.70
2023-02-02T00:43:40.809Z,1.60
2023-02-02T00:46:14.868Z,1.60
2023-02-02T00:48:41.782Z,1.60
2023-02-02T00:51:08.738Z,1.60
2023-02-02T00:53:35.752Z,1.60
2023-02-02T00:56:02.729Z,1.60
2023-02-02T00:58:29.625Z,1.60
2023-02-02T01:00:57.067Z,1.60
2023-02-02T01:03:23.978Z,1.60
2023-02-02T01:05:52.059Z,1.50
2023-02-02T01:08:19.059Z,1.50
2023-02-02T01:10:45.946Z,1.50
2023-02-02T01:13:12.856Z,1.50
2023-02-02T01:15:39.869Z,1.40
2023-02-02T01:18:06.775Z,1.40
2023-02-02T01:20:33.707Z,1.40
2023-02-02T01:23:00.646Z,1.40
2023-02-02T01:25:27.572Z,1.40
2023-02-02T01:27:54.533Z,1.40
2023-02-02T01:30:21.577Z,1.40
2023-02-02T01:32:48.473Z,1.40
2023-02-02T01:35:15.437Z,1.30
2023-02-02T01:37:42.389Z,1.20
2023-02-02T01:40:10.823Z,1.20
2023-02-02T01:42:37.769Z,1.20
2023-02-02T01:45:10.363Z,1.20
2023-02-02T01:47:44.393Z,1.10
2023-02-02T01:50:13.464Z,1.10
2023-02-02T01:52:42.801Z,1.10
2023-02-02T01:55:13.065Z,1.00
2023-02-02T01:57:45.464Z,1.00
2023-02-02T02:00:15.630Z,1.00
2023-02-02T02:02:47.682Z,1.00
2023-02-02T02:05:19.914Z,0.90
2023-02-02T02:07:49.328Z,0.90
2023-02-02T02:10:18.117Z,0.80
2023-02-02T02:12:47.258Z,0.80
2023-02-02T02:15:43.648Z,0.80
2023-02-02T02:18:19.211Z,0.70
2023-02-02T02:21:42.749Z,0.70
2023-02-02T02:24:49.567Z,0.60
2023-02-02T02:27:55.307Z,0.60
2023-02-02T02:30:45.675Z,0.50
2023-02-02T02:33:49.172Z,0.50
2023-02-02T02:36:25.285Z,0.50
2023-02-02T02:39:12.042Z,0.50
2023-02-02T02:41:45.309Z,0.40
2023-02-02T02:44:16.177Z,0.40
2023-02-02T02:46:44.206Z,0.40
2023-02-02T02:49:12.801Z,0.30
2023-02-02T02:51:45.367Z,0.30
2023-02-02T02:54:18.783Z,0.30
2023-02-02T02:57:03.849Z,0.30
2023-02-02T02:59:47.468Z,0.20
2023-02-02T03:02:30.760Z,0.20
2023-02-02T03:05:16.411Z,0.10
2023-02-02T03:07:49.853Z,0.10
2023-02-02T03:10:20.788Z,0.00
2023-02-02T03:12:49.487Z,0.10
2023-02-02T03:15:18.695Z,0.10
2023-02-02T03:17:49.255Z,0.00
2023-02-02T03:20:16.790Z,0.00
2023-02-02T03:22:43.734Z,0.00
2023-02-02T03:25:13.673Z,0.00
2023-02-02T03:27:40.664Z,0.00
2023-02-02T03:30:10.459Z,-0.10
2023-02-02T03:32:38.462Z,-0.10
2023-02-02T03:35:06.178Z,-0.10
2023-02-02T03:37:33.290Z,-0.10
2023-02-02T03:40:00.497Z,-0.10
2023-02-02T03:42:27.592Z,-0.10
2023-02-02T03:44:54.466Z,0.00
2023-02-02T03:47:21.407Z,-0.10
2023-02-02T03:49:48.439Z,-0.10
2023-02-02T03:52:15.285Z,0.00
2023-02-02T03:54:42.167Z,0.00
2023-02-02T03:57:09.087Z,0.10
2023-02-02T03:59:35.986Z,0.00
2023-02-02T04:02:03.253Z,0.00
2023-02-02T04:04:30.283Z,0.00
2023-02-02T04:06:58.695Z,0.10
2023-02-02T04:09:25.999Z,0.10
2023-02-02T04:11:52.915Z,0.10
2023-02-02T04:14:19.917Z,0.10
2023-02-02T04:16:46.882Z,0.10
2023-02-02T04:19:14.113Z,0.10
2023-02-02T04:21:41.359Z,0.10
2023-02-02T04:24:11.960Z,0.10
2023-02-02T04:26:39.280Z,0.20
2023-02-02T04:29:06.332Z,0.10
2023-02-02T04:31:33.341Z,0.20
2023-02-02T04:34:00.382Z,0.20
2023-02-02T04:36:27.573Z,0.20
2023-02-02T04:38:55.469Z,0.20
2023-02-02T04:41:23.503Z,0.20
2023-02-02T04:43:50.493Z,0.20
2023-02-02T04:46:17.525Z,0.20
2023-02-02T04:48:44.459Z,0.20
2023-02-02T04:51:14.501Z,0.20
2023-02-02T04:53:42.462Z,0.20
2023-02-02T04:56:18.419Z,0.20
2023-02-02T04:58:46.217Z,0.30
2023-02-02T05:01:18.650Z,0.30
2023-02-02T05:03:45.926Z,0.20
2023-02-02T05:06:15.774Z,0.20
2023-02-02T05:08:43.552Z,0.20
2023-02-02T05:11:12.756Z,0.20
2023-02-02T05:13:40.379Z,0.20
2023-02-02T05:16:07.498Z,0.20
2023-02-02T05:18:34.400Z,0.20
2023-02-02T05:21:02.781Z,0.20
2023-02-02T05:23:30.829Z,0.20
2023-02-02T05:25:57.914Z,0.20
2023-02-02T05:28:25.155Z,0.10
2023-02-02T05:30:52.409Z,0.10
2023-02-02T05:33:19.804Z,0.10
2023-02-02T05:35:48.117Z,0.10
2023-02-02T05:38:16.427Z,0.10
2023-02-02T05:40:43.417Z,0.10
2023-02-02T05:43:10.422Z,0.10
2023-02-02T05:45:37.374Z,0.10
2023-02-02T05:48:04.474Z,0.10
2023-02-02T05:50:31.418Z,0.10
2023-02-02T05:52:59.741Z,0.00
2023-02-02T05:55:26.936Z,0.00
2023-02-02T05:57:53.972Z,0.00
2023-02-02T06:00:21.291Z,0.00
2023-02-02T06:02:48.191Z,-0.10
2023-02-02T06:05:15.212Z,-0.10
2023-02-02T06:07:42.068Z,-0.20
2023-02-02T06:10:09.482Z,-0.20
2023-02-02T06:12:36.435Z,-0.20
2023-02-02T06:15:03.699Z,-0.20
2023-02-02T06:17:30.605Z,-0.20
2023-02-02T06:19:57.481Z,-0.20
2023-02-02T06:22:24.459Z,-0.20
2023-02-02T06:24:53.449Z,-0.20
2023-02-02T06:27:21.450Z,-0.30
2023-02-02T06:29:48.405Z,-0.30
2023-02-02T06:32:15.372Z,-0.30
2023-02-02T06:34:42.219Z,-0.30
2023-02-02T06:37:09.156Z,-0.30
2023-02-02T06:39:36.151Z,-0.30
2023-02-02T06:42:19.237Z,-0.30
2023-02-02T06:44:47.672Z,-0.40
2023-02-02T06:47:14.555Z,-0.30
2023-02-02T06:49:41.527Z,-0.30
2023-02-02T06:52:08.624Z,-0.30
2023-02-02T06:54:35.550Z,-0.40
2023-02-02T06:57:02.475Z,-0.40
2023-02-02T06:59:29.360Z,-0.30
2023-02-02T07:01:56.367Z,-0.30
2023-02-02T07:04:23.456Z,-0.40
2023-02-02T07:06:50.346Z,-0.40
2023-02-02T07:09:19.654Z,-0.40
2023-02-02T07:11:46.645Z,-0.30
2023-02-02T07:14:14.234Z,-0.30
2023-02-02T07:16:41.169Z,-0.30
2023-02-02T07:19:08.224Z,-0.40
2023-02-02T07:21:38.180Z,-0.40
2023-02-02T07:24:06.114Z,-0.30
2023-02-02T07:26:34.922Z,-0.30
2023-02-02T07:29:03.012Z,-0.20
2023-02-02T07:31:30.020Z,-0.20
2023-02-02T07:33:57.331Z,-0.20
2023-02-02T07:36:24.947Z,-0.40
2023-02-02T07:38:57.676Z,-0.30
2023-02-02T07:41:25.093Z,-0.30
2023-02-02T07:43:52.337Z,-0.30
2023-02-02T07:46:20.602Z,-0.30
2023-02-02T07:48:47.831Z,-0.20
2023-02-02T07:51:17.529Z,-0.20
2023-02-02T07:53:50.058Z,-0.20
2023-02-02T07:56:30.647Z,-0.20
2023-02-02T07:58:58.112Z,-0.20
2023-02-02T08:01:27.064Z,-0.20
2023-02-02T08:03:55.610Z,-0.20
2023-02-02T08:06:33.704Z,-0.20
2023-02-02T08:09:02.338Z,-0.20
2023-02-02T08:11:29.688Z,-0.20
2023-02-02T08:13:58.558Z,-0.20
2023-02-02T08:16:27.171Z,-0.20
2023-02-02T08:18:54.592Z,-0.20
2023-02-02T08:21:22.324Z,-0.20
2023-02-02T08:23:49.474Z,-0.20
2023-02-02T08:26:22.372Z,-0.10
2023-02-02T08:28:54.313Z,-0.20
2023-02-02T08:31:34.301Z,-0.10
2023-02-02T08:34:01.952Z,-0.10
2023-02-02T08:36:30.289Z,-0.20
2023-02-02T08:39:03.863Z,-0.10
2023-02-02T08:41:30.907Z,-0.10
2023-02-02T08:43:57.838Z,-0.10
2023-02-02T08:46:25.037Z,-0.10
2023-02-02T08:48:52.044Z,-0.10
2023-02-02T08:51:20.209Z,0.00
2023-02-02T08:53:47.662Z,0.00
2023-02-02T08:56:20.538Z,0.00
2023-02-02T08:59:00.297Z,0.00
2023-02-02T09:01:31.945Z,0.00
2023-02-02T09:04:07.381Z,0.00
2023-02-02T09:06:37.237Z,0.10
2023-02-02T09:09:05.835Z,0.10
2023-02-02T09:11:32.870Z,0.10
2023-02-02T09:14:02.569Z,0.00
2023-02-02T09:16:30.160Z,0.00
2023-02-02T09:18:57.459Z,0.00
2023-02-02T09:21:24.527Z,-0.10
2023-02-02T09:23:56.007Z,-0.10
2023-02-02T09:26:28.021Z,-0.20
2023-02-02T09:28:57.712Z,-0.20
2023-02-02T09:31:26.215Z,-0.20
2023-02-02T09:33:53.325Z,-0.20
2023-02-02T09:36:23.230Z,-0.20
2023-02-02T09:38:51.157Z,-0.20
2023-02-02T09:41:21.035Z,-0.30
2023-02-02T09:44:02.922Z,-0.30
2023-02-02T09:47:08.260Z,-0.20
2023-02-02T09:49:35.128Z,-0.10
2023-02-02T09:52:42.525Z,-0.10
2023-02-02T09:55:19.933Z,0.00
2023-02-02T09:57:52.316Z,0.00
2023-02-02T10:00:32.830Z,0.10
2023-02-02T10:03:17.835Z,0.10
2023-02-02T10:05:56.403Z,0.10
2023-02-02T10:08:41.214Z,0.20
2023-02-02T10:11:30.935Z,0.20
2023-02-02T10:14:03.070Z,0.20
2023-02-02T10:16:31.189Z,0.30
2023-02-02T10:19:13.812Z,0.20
2023-02-02T10:22:00.729Z,0.30
2023-02-02T10:24:29.871Z,0.30
2023-02-02T10:27:04.217Z,0.20
2023-02-02T10:29:59.845Z,0.30
2023-02-02T10:32:32.099Z,0.20
2023-02-02T10:35:20.411Z,0.20
2023-02-02T10:38:12.193Z,0.10
2023-02-02T10:40:57.466Z,0.10
2023-02-02T10:43:48.421Z,0.20
2023-02-02T10:46:26.158Z,0.10
2023-02-02T10:49:15.450Z,0.20
2023-02-02T10:51:49.104Z,0.30
2023-02-02T10:54:55.349Z,0.30
2023-02-02T10:57:30.804Z,0.30
2023-02-02T11:00:23.696Z,0.20
2023-02-02T11:02:52.638Z,0.20
2023-02-02T11:05:47.221Z,0.20
2023-02-02T11:08:15.549Z,0.20
2023-02-02T11:10:44.733Z,0.20
2023-02-02T11:13:33.629Z,0.20
2023-02-02T11:16:42.109Z,0.20
2023-02-02T11:19:19.644Z,0.20
2023-02-02T11:21:49.166Z,0.20
2023-02-02T11:24:26.797Z,0.20
2023-02-02T11:27:15.176Z,0.20
2023-02-02T11:29:56.596Z,0.10
2023-02-02T11:32:29.596Z,0.10
2023-02-02T11:35:08.709Z,0.20
2023-02-02T11:37:51.476Z,0.20
2023-02-02T11:40:32.632Z,0.20
2023-02-02T11:43:03.103Z,0.20
2023-02-02T11:45:34.331Z,0.20
2023-02-02T11:48:15.788Z,0.20
2023-02-02T11:50:57.432Z,0.20
2023-02-02T11:53:41.887Z,0.20
2023-02-02T11:56:25.094Z,0.20
2023-02-02T11:58:59.185Z,0.30
2023-02-02T12:01:40.417Z,0.20
2023-02-02T12:04:16.258Z,0.20
2023-02-02T12:06:43.184Z,0.20
2023-02-02T12:09:17.016Z,0.20
2023-02-02T12:11:55.868Z,0.10
2023-02-02T12:14:31.904Z,0.10
2023-02-02T12:17:19.044Z,0.10
2023-02-02T12:20:07.415Z,0.20
2023-02-02T12:23:01.418Z,0.20
2023-02-02T12:25:53.045Z,0.20
2023-02-02T12:28:19.854Z,0.20
2023-02-02T12:31:29.024Z,0.20
2023-02-02T12:33:58.954Z,0.30
2023-02-02T12:36:31.643Z,0.20
2023-02-02T12:39:36.433Z,0.20
2023-02-02T12:42:06.461Z,0.20
2023-02-02T12:44:42.944Z,0.10
2023-02-02T12:47:24.096Z,0.10
2023-02-02T12:50:06.079Z,0.10
2023-02-02T12:52:51.518Z,0.00
2023-02-02T12:55:39.802Z,0.10
2023-02-02T12:58:43.730Z,0.10
2023-02-02T13:01:25.747Z,0.10
2023-02-02T13:03:59.535Z,0.10
2023-02-02T13:06:38.267Z,0.10
2023-02-02T13:09:14.466Z,0.10
2023-02-02T13:11:45.841Z,0.10
2023-02-02T13:14:16.377Z,0.10
2023-02-02T13:16:56.219Z,0.10
2023-02-02T13:19:26.195Z,0.10
2023-02-02T13:21:57.472Z,0.10
2023-02-02T13:24:31.147Z,0.00
2023-02-02T13:27:02.059Z,0.10
2023-02-02T13:29:47.973Z,0.10
2023-02-02T13:32:27.487Z,0.00
2023-02-02T13:35:18.204Z,0.00
2023-02-02T13:37:50.419Z,0.00
2023-02-02T13:40:32.588Z,0.00
2023-02-02T13:43:21.846Z,0.00
2023-02-02T13:45:54.998Z,-0.10
2023-02-02T13:48:40.660Z,-0.10
2023-02-02T13:51:34.569Z,-0.10
2023-02-02T13:54:35.250Z,-0.10
2023-02-02T13:57:28.215Z,-0.10
2023-02-02T13:59:55.157Z,-0.10
2023-02-02T14:02:47.941Z,-0.20
2023-02-02T14:05:33.567Z,-0.10
2023-02-02T14:08:21.185Z,-0.20
2023-02-02T14:10:53.979Z,-0.20
2023-02-02T14:14:01.901Z,-0.20
2023-02-02T14:16:31.908Z,-0.20
2023-02-02T14:19:00.828Z,-0.20
2023-02-02T14:21:33.744Z,-0.30
2023-02-02T14:24:28.375Z,-0.30
2023-02-02T14:26:56.738Z,-0.30
2023-02-02T14:29:32.647Z,-0.30
2023-02-02T14:32:07.150Z,-0.30
2023-02-02T14:34:42.060Z,-0.40
2023-02-02T14:37:17.634Z,-0.40
2023-02-02T14:40:07.050Z,-0.40
2023-02-02T14:43:10.519Z,-0.40
2023-02-02T14:45:45.467Z,-0.40
2023-02-02T14:48:21.102Z,-0.40
2023-02-02T14:50:53.470Z,-0.40
2023-02-02T14:53:35.592Z,-0.40
2023-02-02T14:56:16.022Z,-0.40
2023-02-02T14:58:53.114Z,-0.30
2023-02-02T15:01:26.150Z,-0.30
2023-02-02T15:04:20.118Z,-0.40
2023-02-02T15:06:49.295Z,-0.40
2023-02-02T15:09:23.275Z,-0.40
2023-02-02T15:12:01.209Z,-0.30
2023-02-02T15:14:51.391Z,-0.40
2023-02-02T15:17:30.818Z,-0.30
2023-02-02T15:20:27.261Z,-0.30
2023-02-02T15:23:04.898Z,-0.40
2023-02-02T15:25:45.718Z,-0.40
2023-02-02T15:28:45.264Z,-0.30
2023-02-02T15:31:15.278Z,-0.30
2023-02-02T15:33:47.067Z,-0.40
2023-02-02T15:36:22.002Z,-0.40
2023-02-02T15:38:52.098Z,-0.40
2023-02-02T15:41:24.227Z,-0.50
2023-02-02T15:43:52.409Z,-0.50
2023-02-02T15:46:35.882Z,-0.50
2023-02-02T15:49:33.787Z,-0.50
2023-02-02T15:52:10.876Z,-0.50
2023-02-02T15:54:38.251Z,-0.50
2023-02-02T15:57:35.218Z,-0.50
2023-02-02T16:00:27.174Z,-0.60
2023-02-02T16:03:18.159Z,-0.60
2023-02-02T16:05:54.803Z,-0.60
2023-02-02T16:08:27.563Z,-0.60
2023-02-02T16:11:12.647Z,-0.60
2023-02-02T16:13:40.800Z,-0.70
2023-02-02T16:16:29.542Z,-0.70
2023-02-02T16:19:25.583Z,-0.70
2023-02-02T16:22:05.938Z,-0.80
2023-02-02T16:24:58.214Z,-0.90
2023-02-02T16:27:27.407Z,-0.90
2023-02-02T16:29:58.450Z,-0.90
2023-02-02T16:32:30.765Z,-1.00
2023-02-02T16:34:58.902Z,-1.00
2023-02-02T16:37:32.400Z,-1.00
2023-02-02T16:40:28.814Z,-1.00
2023-02-02T16:43:18.357Z,-1.00
2023-02-02T16:45:56.909Z,-1.10
2023-02-02T16:48:56.189Z,-1.10
2023-02-02T16:51:33.750Z,-1.10
2023-02-02T16:54:06.655Z,-1.10
2023-02-02T16:56:37.185Z,-1.10
2023-02-02T16:59:24.174Z,-1.20
2023-02-02T17:02:04.015Z,-1.10
2023-02-02T17:04:34.961Z,-1.20
2023-02-02T17:07:14.399Z,-1.20
2023-02-02T17:09:43.852Z,-1.30
2023-02-02T17:12:33.378Z,-1.30
2023-02-02T17:15:22.550Z,-1.30
2023-02-02T17:17:49.627Z,-1.30
2023-02-02T17:20:19.030Z,-1.30
2023-02-02T17:22:48.603Z,-1.30
2023-02-02T17:25:29.929Z,-1.30
2023-02-02T17:27:58.956Z,-1.30
2023-02-02T17:30:27.235Z,-1.30
2023-02-02T17:32:54.151Z,-1.40
2023-02-02T17:35:27.373Z,-1.40
2023-02-02T17:37:54.934Z,-1.40
2023-02-02T17:40:24.097Z,-1.40
2023-02-02T17:42:53.103Z,-1.40
2023-02-02T17:45:34.948Z,-1.40
2023-02-02T17:48:02.619Z,-1.40
2023-02-02T17:50:30.791Z,-1.40
2023-02-02T17:52:58.150Z,-1.30
2023-02-02T17:55:27.486Z,-1.30
2023-02-02T17:57:54.907Z,-1.40
2023-02-02T18:00:24.415Z,-1.40
2023-02-02T18:02:59.372Z,-1.40
2023-02-02T18:05:26.542Z,-1.40
2023-02-02T18:07:54.891Z,-1.40
2023-02-02T18:10:24.839Z,-1.40
2023-02-02T18:12:52.050Z,-1.40
2023-02-02T18:15:19.283Z,-1.40
2023-02-02T18:17:46.459Z,-1.40
2023-02-02T18:20:16.994Z,-1.40
2023-02-02T18:22:44.305Z,-1.50
2023-02-02T18:25:11.548Z,-1.40
2023-02-02T18:27:38.611Z,-1.40
2023-02-02T18:30:06.848Z,-1.40
2023-02-02T18:32:38.691Z,-1.40
2023-02-02T18:35:07.681Z,-1.40
2023-02-02T18:37:36.011Z,-1.40
2023-02-02T18:40:03.536Z,-1.40
2023-02-02T18:42:32.323Z,-1.30
2023-02-02T18:45:00.463Z,-1.30
2023-02-02T18:47:27.894Z,-1.40
2023-02-02T18:49:55.055Z,-1.40
2023-02-02T18:52:22.272Z,-1.40
2023-02-02T18:54:49.871Z,-1.40
2023-02-02T18:57:16.999Z,-1.30
2023-02-02T18:59:44.442Z,-1.30
2023-02-02T19:02:16.288Z,-1.30
2023-02-02T19:05:02.278Z,-1.40
2023-02-02T19:07:48.029Z,-1.40
2023-02-02T19:10:17.264Z,-1.40
2023-02-02T19:12:57.998Z,-1.40
2023-02-02T19:15:26.799Z,-1.40
2023-02-02T19:17:55.260Z,-1.40
2023-02-02T19:20:28.871Z,-1.40
2023-02-02T19:23:01.809Z,-1.40
2023-02-02T19:25:29.145Z,-1.40
2023-02-02T19:27:56.338Z,-1.50
2023-02-02T19:30:24.100Z,-1.40
2023-02-02T19:32:51.356Z,-1.40
2023-02-02T19:35:21.126Z,-1.40
2023-02-02T19:37:49.391Z,-1.40
2023-02-02T19:40:21.433Z,-1.40
2023-02-02T19:43:20.562Z,-1.40
2023-02-02T19:45:47.511Z,-1.40
2023-02-02T19:48:19.831Z,-1.40
2023-02-02T19:50:47.652Z,-1.40
2023-02-02T19:53:14.593Z,-1.40
2023-02-02T19:55:43.956Z,-1.40
2023-02-02T19:58:26.475Z,-1.50
2023-02-02T20:00:55.763Z,-1.50
2023-02-02T20:03:42.944Z,-1.40
2023-02-02T20:06:21.257Z,-1.50
2023-02-02T20:08:48.271Z,-1.50
2023-02-02T20:11:38.467Z,-1.60
2023-02-02T20:14:25.395Z,-1.60
2023-02-02T20:17:04.934Z,-1.60
2023-02-02T20:19:40.083Z,-1.60
2023-02-02T20:22:25.279Z,-1.60
2023-02-02T20:24:52.961Z,-1.70
2023-02-02T20:27:26.216Z,-1.70
2023-02-02T20:29:57.125Z,-1.70
2023-02-02T20:32:52.951Z,-1.70
2023-02-02T20:35:33.578Z,-1.70
2023-02-02T20:38:00.524Z,-1.70
2023-02-02T20:40:30.433Z,-1.80
2023-02-02T20:42:58.434Z,-1.70
2023-02-02T20:45:26.385Z,-1.70
2023-02-02T20:47:53.427Z,-1.70
2023-02-02T20:50:22.005Z,-1.70
2023-02-02T20:52:51.798Z,-1.70
2023-02-02T20:55:18.817Z,-1.70
2023-02-02T20:57:45.886Z,-1.70
2023-02-02T21:00:16.397Z,-1.70
2023-02-02T21:02:43.550Z,-1.80
2023-02-02T21:05:10.552Z,-1.80
2023-02-02T21:07:37.478Z,-1.80
2023-02-02T21:10:05.241Z,-1.80
2023-02-02T21:12:32.314Z,-1.90
2023-02-02T21:14:59.293Z,-2.00
2023-02-02T21:17:27.480Z,-2.00
2023-02-02T21:19:54.504Z,-2.00
2023-02-02T21:22:21.408Z,-2.00
2023-02-02T21:24:48.448Z,-2.00
2023-02-02T21:27:15.526Z,-2.00
2023-02-02T21:29:42.511Z,-2.10
2023-02-02T21:32:09.482Z,-2.20
2023-02-02T21:34:37.859Z,-2.20
2023-02-02T21:37:15.138Z,-2.30
2023-02-02T21:39:48.428Z,-2.30
2023-02-02T21:42:21.181Z,-2.40
2023-02-02T21:44:56.442Z,-2.40
2023-02-02T21:47:33.886Z,-2.40
2023-02-02T21:50:19.074Z,-2.40
2023-02-02T21:52:46.117Z,-2.40
2023-02-02T21:55:36.779Z,-2.40
2023-02-02T21:58:24.888Z,-2.40
2023-02-02T22:00:59.515Z,-2.50
2023-02-02T22:03:36.981Z,-2.50
2023-02-02T22:06:18.757Z,-2.50
2023-02-02T22:08:45.723Z,-2.60
2023-02-02T22:11:29.451Z,-2.60
2023-02-02T22:14:02.576Z,-2.60
2023-02-02T22:16:38.192Z,-2.70
2023-02-02T22:19:23.990Z,-2.70
2023-02-02T22:21:50.920Z,-2.60
2023-02-02T22:24:17.864Z,-2.60
2023-02-02T22:26:44.802Z,-2.60
2023-02-02T22:29:18.133Z,-2.60
2023-02-02T22:31:45.114Z,-2.80
2023-02-02T22:34:12.116Z,-2.90
2023-02-02T22:36:39.026Z,-3.00
2023-02-02T22:39:05.930Z,-3.00
2023-02-02T22:41:32.893Z,-3.00
2023-02-02T22:43:59.884Z,-3.00
2023-02-02T22:46:26.842Z,-3.00
2023-02-02T22:48:53.828Z,-3.00
2023-02-02T22:51:20.750Z,-3.00
2023-02-02T22:53:47.919Z,-3.00
2023-02-02T22:56:15.541Z,-3.10
2023-02-02T22:58:42.491Z,-3.10
2023-02-02T23:01:11.655Z,-3.20
2023-02-02T23:03:38.620Z,-3.20
2023-02-02T23:06:06.661Z,-3.20
2023-02-02T23:08:34.603Z,-3.20
2023-02-02T23:11:01.749Z,-3.20
2023-02-02T23:13:28.655Z,-3.10
2023-02-02T23:15:56.799Z,-3.00
2023-02-02T23:18:23.759Z,-2.90
2023-02-02T23:20:50.732Z,-2.90
2023-02-02T23:23:17.653Z,-2.90
2023-02-02T23:25:44.586Z,-2.90
2023-02-02T23:28:11.547Z,-2.90
2023-02-02T23:30:38.490Z,-3.00
2023-02-02T23:33:05.488Z,-3.00
2023-02-02T23:35:32.398Z,-3.10
2023-02-02T23:37:59.353Z,-3.20
2023-02-02T23:40:26.551Z,-3.30
2023-02-02T23:42:53.711Z,-3.30
2023-02-02T23:45:20.661Z,-3.40
2023-02-02T23:47:47.605Z,-3.40
2023-02-02T23:50:14.797Z,-3.40
2023-02-02T23:52:41.852Z,-3.40
2023-02-02T23:55:10.459Z,-3.30
2023-02-02T23:57:37.727Z,-3.40
